Terminal Aerodrome Forecast
Issued by NWS

Home | Current Version | Previous Version | Text Only | Print | Product List | Glossary On
Versions: 1 2 3 4 5 6 7 8 9 10 11 12 13 14 15 16 17 18 19 20 21 22
000
FTUS44 KBMX 051120
TAFMGM
TAF
KMGM 051120Z 0512/0612 23005KT 4SM SHRA VCTS SCT025CB OVC040
     FM051900 23010KT P6SM BKN050
     FM060000 22004KT P6SM BKN250
     FM060300 00000KT P6SM BKN250=

USA.gov is the U.S. government's official web portal to all federal, state and local government web resources and services.